createdAt,value
2023-05-10T00:00:20.693Z,31.83
2023-05-10T00:01:20.698Z,31.90
2023-05-10T00:02:20.743Z,31.85
2023-05-10T00:03:20.798Z,31.82
2023-05-10T00:04:20.818Z,31.68
2023-05-10T00:05:20.741Z,31.72
2023-05-10T00:06:20.694Z,31.92
2023-05-10T00:07:20.711Z,31.87
2023-05-10T00:08:20.697Z,31.93
2023-05-10T00:09:20.711Z,31.94
2023-05-10T00:10:20.686Z,31.97
2023-05-10T00:11:22.883Z,31.93
2023-05-10T00:12:20.724Z,31.84
2023-05-10T00:13:20.762Z,32.06
2023-05-10T00:14:20.662Z,32.11
2023-05-10T00:15:20.688Z,31.78
2023-05-10T00:16:20.752Z,31.87
2023-05-10T00:17:20.711Z,32.09
2023-05-10T00:18:20.667Z,32.14
2023-05-10T00:19:20.687Z,31.71
2023-05-10T00:20:20.684Z,32.04
2023-05-10T00:21:20.724Z,31.99
2023-05-10T00:22:20.661Z,31.92
2023-05-10T00:23:20.707Z,32.17
2023-05-10T00:24:20.698Z,32.25
2023-05-10T00:25:20.672Z,32.16
2023-05-10T00:26:20.660Z,31.98
2023-05-10T00:27:20.649Z,31.97
2023-05-10T00:28:20.714Z,32.00
2023-05-10T00:29:20.660Z,32.04
2023-05-10T00:30:20.676Z,32.23
2023-05-10T00:31:20.651Z,31.89
2023-05-10T00:32:20.819Z,31.99
2023-05-10T00:33:20.671Z,32.01
2023-05-10T00:34:20.646Z,32.09
2023-05-10T00:35:20.661Z,31.96
2023-05-10T00:36:20.677Z,32.05
2023-05-10T00:37:20.640Z,32.03
2023-05-10T00:38:20.671Z,32.29
2023-05-10T00:39:20.672Z,32.33
2023-05-10T00:40:20.689Z,32.38
2023-05-10T00:41:21.606Z,31.92
2023-05-10T00:42:20.680Z,32.10
2023-05-10T00:43:20.653Z,32.20
2023-05-10T00:44:20.666Z,32.37
2023-05-10T00:45:20.667Z,32.36
2023-05-10T00:46:20.659Z,32.22
2023-05-10T00:47:20.699Z,32.24
2023-05-10T00:48:20.650Z,32.27
2023-05-10T00:49:20.640Z,32.42
2023-05-10T00:50:20.642Z,32.26
2023-05-10T00:51:20.669Z,32.30
2023-05-10T00:52:20.691Z,32.29
2023-05-10T00:53:20.673Z,32.24
2023-05-10T00:54:20.675Z,32.42
2023-05-10T00:55:20.641Z,32.29
2023-05-10T00:56:20.655Z,32.12
2023-05-10T00:57:20.627Z,32.26
2023-05-10T00:58:20.657Z,32.31
2023-05-10T00:59:20.644Z,32.44
2023-05-10T01:00:20.630Z,32.19
2023-05-10T01:01:20.674Z,32.30
2023-05-10T01:02:20.702Z,32.47
2023-05-10T01:03:20.780Z,32.50
2023-05-10T01:04:20.696Z,32.36
2023-05-10T01:05:20.822Z,32.30
2023-05-10T01:06:20.647Z,32.39
2023-05-10T01:07:20.668Z,32.45
2023-05-10T01:08:20.694Z,32.41
2023-05-10T01:09:20.676Z,32.47
2023-05-10T01:10:20.657Z,32.50
2023-05-10T01:11:20.671Z,32.54
2023-05-10T01:12:20.701Z,32.43
2023-05-10T01:13:20.741Z,32.47
2023-05-10T01:14:20.642Z,32.39
2023-05-10T01:15:20.666Z,32.47
2023-05-10T01:16:20.709Z,32.52
2023-05-10T01:17:20.673Z,32.54
2023-05-10T01:18:20.660Z,32.43
2023-05-10T01:19:20.661Z,32.31
2023-05-10T01:20:20.666Z,32.44
2023-05-10T01:21:20.655Z,32.54
2023-05-10T01:22:20.672Z,32.42
2023-05-10T01:23:20.671Z,32.57
2023-05-10T01:24:20.684Z,32.54
2023-05-10T01:25:20.693Z,32.49
2023-05-10T01:26:20.696Z,32.62
2023-05-10T01:27:20.675Z,32.41
2023-05-10T01:28:20.664Z,32.33
2023-05-10T01:29:20.657Z,32.59
2023-05-10T01:31:20.800Z,32.56
2023-05-10T01:32:20.677Z,32.44
2023-05-10T01:33:20.703Z,32.44
2023-05-10T01:34:20.679Z,32.59
2023-05-10T01:35:20.688Z,32.48
2023-05-10T01:36:20.713Z,32.38
2023-05-10T01:37:20.681Z,32.30
2023-05-10T01:38:20.664Z,32.58
2023-05-10T01:39:20.687Z,32.66
2023-05-10T01:40:20.675Z,32.49
2023-05-10T01:41:20.702Z,32.60
2023-05-10T01:42:20.701Z,32.60
2023-05-10T01:43:20.807Z,32.57
2023-05-10T01:44:20.675Z,32.63
2023-05-10T01:45:20.732Z,32.51
2023-05-10T01:46:20.678Z,32.74
2023-05-10T01:47:20.677Z,32.56
2023-05-10T01:48:20.701Z,32.50
2023-05-10T01:49:20.664Z,32.62
2023-05-10T01:50:20.717Z,32.69
2023-05-10T01:51:20.668Z,32.59
2023-05-10T01:52:20.727Z,32.48
2023-05-10T01:53:20.694Z,32.62
2023-05-10T01:54:20.681Z,32.73
2023-05-10T01:55:20.691Z,32.54
2023-05-10T01:56:20.689Z,32.66
2023-05-10T01:57:20.690Z,32.78
2023-05-10T01:58:20.687Z,32.79
2023-05-10T01:59:20.725Z,32.82
2023-05-10T02:00:20.681Z,32.77
2023-05-10T02:01:20.773Z,32.78
2023-05-10T02:02:20.667Z,32.74
2023-05-10T02:03:20.736Z,32.75
2023-05-10T02:04:20.635Z,32.74
2023-05-10T02:05:20.648Z,32.77
2023-05-10T02:06:20.638Z,32.73
2023-05-10T02:07:20.642Z,32.65
2023-05-10T02:08:20.682Z,32.78
2023-05-10T02:09:20.663Z,32.68
2023-05-10T02:10:20.683Z,32.83
2023-05-10T02:11:20.657Z,32.86
2023-05-10T02:12:20.653Z,32.62
2023-05-10T02:13:20.751Z,32.75
2023-05-10T02:14:20.688Z,32.73
2023-05-10T02:15:20.662Z,32.68
2023-05-10T02:16:20.696Z,32.79
2023-05-10T02:17:20.636Z,32.81
2023-05-10T02:18:20.667Z,32.77
2023-05-10T02:19:20.672Z,32.75
2023-05-10T02:20:20.685Z,32.78
2023-05-10T02:21:20.649Z,32.69
2023-05-10T02:22:20.634Z,32.77
2023-05-10T02:23:20.657Z,32.87
2023-05-10T02:24:20.650Z,32.76
2023-05-10T02:25:20.653Z,32.85
2023-05-10T02:26:20.652Z,32.89
2023-05-10T02:27:20.645Z,32.89
2023-05-10T02:28:20.662Z,32.89
2023-05-10T02:29:20.740Z,32.91
2023-05-10T02:30:20.672Z,32.93
2023-05-10T02:31:20.704Z,32.94
2023-05-10T02:32:20.652Z,32.95
2023-05-10T02:33:20.653Z,32.84
2023-05-10T02:34:20.664Z,32.78
2023-05-10T02:35:20.698Z,32.89
2023-05-10T02:36:20.684Z,32.93
2023-05-10T02:37:20.681Z,32.96
2023-05-10T02:38:20.682Z,32.96
2023-05-10T02:39:20.670Z,32.96
2023-05-10T02:40:20.633Z,32.92
2023-05-10T02:41:20.640Z,32.94
2023-05-10T02:42:20.674Z,32.92
2023-05-10T02:43:20.645Z,33.02
2023-05-10T02:44:20.703Z,33.07
2023-05-10T02:45:20.656Z,33.04
2023-05-10T02:46:20.764Z,33.03
2023-05-10T02:47:20.714Z,33.00
2023-05-10T02:48:20.749Z,32.97
2023-05-10T02:49:20.700Z,32.98
2023-05-10T02:50:20.701Z,33.05
2023-05-10T02:51:20.701Z,33.04
2023-05-10T02:52:20.720Z,33.02
2023-05-10T02:53:20.711Z,32.98
2023-05-10T02:54:20.700Z,33.04
2023-05-10T02:55:20.712Z,33.03
2023-05-10T02:56:20.681Z,33.08
2023-05-10T02:57:20.707Z,33.02
2023-05-10T02:58:20.698Z,33.05
2023-05-10T02:59:20.722Z,33.01
2023-05-10T03:00:20.720Z,33.06
2023-05-10T03:01:20.772Z,33.10
2023-05-10T03:02:20.734Z,33.17
2023-05-10T03:03:20.731Z,33.14
2023-05-10T03:04:20.709Z,33.11
2023-05-10T03:05:20.742Z,33.08
2023-05-10T03:06:20.722Z,33.04
2023-05-10T03:07:20.715Z,33.12
2023-05-10T03:08:20.740Z,33.13
2023-05-10T03:09:20.709Z,33.07
2023-05-10T03:10:20.714Z,33.12
2023-05-10T03:11:20.726Z,33.09
2023-05-10T03:12:20.735Z,33.07
2023-05-10T03:13:20.795Z,33.10
2023-05-10T03:14:20.731Z,33.10
2023-05-10T03:15:20.756Z,33.08
2023-05-10T03:16:20.750Z,33.11
2023-05-10T03:17:20.740Z,33.20
2023-05-10T03:18:20.740Z,33.12
2023-05-10T03:19:20.727Z,33.14
2023-05-10T03:20:20.730Z,33.16
2023-05-10T03:21:20.753Z,33.18
2023-05-10T03:22:20.708Z,33.17
2023-05-10T03:23:20.711Z,33.18
2023-05-10T03:24:20.702Z,33.20
2023-05-10T03:25:20.752Z,33.24
2023-05-10T03:26:20.713Z,33.23
2023-05-10T03:27:20.738Z,33.18
2023-05-10T03:28:20.745Z,33.17
2023-05-10T03:29:20.718Z,33.22
2023-05-10T03:30:20.762Z,33.22
2023-05-10T03:31:20.743Z,33.26
2023-05-10T03:32:20.776Z,33.19
2023-05-10T03:33:20.745Z,33.28
2023-05-10T03:34:20.703Z,33.27
2023-05-10T03:35:20.773Z,33.26
2023-05-10T03:36:20.741Z,33.22
2023-05-10T03:37:20.766Z,33.23
2023-05-10T03:38:20.758Z,33.25
2023-05-10T03:39:20.730Z,33.24
2023-05-10T03:40:20.741Z,33.23
2023-05-10T03:41:20.727Z,33.22
2023-05-10T03:42:20.747Z,33.23
2023-05-10T03:43:20.736Z,33.22
2023-05-10T03:44:20.706Z,33.24
2023-05-10T03:45:20.704Z,33.27
2023-05-10T03:46:20.743Z,33.22
2023-05-10T03:47:20.748Z,33.32
2023-05-10T03:48:20.711Z,33.31
2023-05-10T03:49:20.706Z,33.27
2023-05-10T03:50:20.695Z,33.33
2023-05-10T03:51:20.709Z,33.27
2023-05-10T03:52:20.715Z,33.28
2023-05-10T03:53:20.707Z,33.22
2023-05-10T03:54:20.710Z,33.31
2023-05-10T03:55:20.725Z,33.07
2023-05-10T03:56:20.689Z,33.09
2023-05-10T03:57:20.687Z,33.21
2023-05-10T03:58:20.688Z,33.29
2023-05-10T03:59:20.701Z,33.30
2023-05-10T04:00:20.686Z,33.27
2023-05-10T04:01:20.717Z,33.31
2023-05-10T04:02:20.807Z,33.34
2023-05-10T04:03:20.801Z,33.26
2023-05-10T04:04:20.749Z,33.29
2023-05-10T04:05:20.680Z,33.28
2023-05-10T04:06:20.767Z,33.33
2023-05-10T04:07:20.678Z,33.32
2023-05-10T04:08:20.673Z,33.35
2023-05-10T04:09:20.669Z,33.32
2023-05-10T04:10:20.665Z,33.33
2023-05-10T04:11:20.652Z,33.35
2023-05-10T04:12:20.659Z,33.35
2023-05-10T04:13:20.791Z,33.38
2023-05-10T04:14:20.665Z,33.43
2023-05-10T04:15:20.662Z,33.40
2023-05-10T04:16:20.700Z,33.37
2023-05-10T04:17:20.693Z,33.40
2023-05-10T04:18:20.627Z,33.44
2023-05-10T04:19:20.621Z,33.37
2023-05-10T04:20:20.651Z,33.37
2023-05-10T04:21:20.642Z,33.42
2023-05-10T04:22:20.636Z,33.40
2023-05-10T04:23:20.670Z,33.38
2023-05-10T04:24:20.608Z,33.36
2023-05-10T04:25:20.676Z,33.35
2023-05-10T04:26:20.640Z,33.41
2023-05-10T04:27:20.623Z,33.41
2023-05-10T04:28:20.616Z,33.42
2023-05-10T04:29:20.623Z,33.48
2023-05-10T04:30:20.645Z,33.49
2023-05-10T04:31:20.727Z,33.47
2023-05-10T04:32:20.639Z,33.49
2023-05-10T04:33:20.646Z,33.51
2023-05-10T04:34:20.621Z,33.45
2023-05-10T04:35:20.645Z,33.44
2023-05-10T04:36:20.657Z,33.43
2023-05-10T04:37:20.606Z,33.46
2023-05-10T04:38:20.631Z,33.46
2023-05-10T04:39:20.630Z,33.47
2023-05-10T04:40:20.596Z,33.46
2023-05-10T04:41:20.586Z,33.46
2023-05-10T04:42:20.603Z,33.46
2023-05-10T04:43:20.660Z,33.44
2023-05-10T04:44:20.589Z,33.49
2023-05-10T04:45:20.595Z,33.49
2023-05-10T04:46:20.659Z,33.47
2023-05-10T04:47:20.642Z,33.49
2023-05-10T04:48:20.587Z,33.57
2023-05-10T04:49:20.602Z,33.57
2023-05-10T04:50:20.600Z,33.54
2023-05-10T04:51:20.587Z,33.48
2023-05-10T04:52:20.584Z,33.48
2023-05-10T04:53:20.592Z,33.49
2023-05-10T04:54:20.596Z,33.52
2023-05-10T04:55:20.734Z,33.54
2023-05-10T04:56:20.619Z,33.55
2023-05-10T04:57:20.609Z,33.47
2023-05-10T04:58:20.624Z,33.44
2023-05-10T04:59:20.620Z,33.55
2023-05-10T05:00:20.604Z,33.52
2023-05-10T05:01:20.640Z,33.57
2023-05-10T05:02:20.642Z,33.53
2023-05-10T05:03:20.754Z,33.48
2023-05-10T05:04:20.587Z,33.58
2023-05-10T05:05:20.595Z,33.58
2023-05-10T05:06:20.644Z,33.55
2023-05-10T05:07:20.588Z,33.53
2023-05-10T05:08:20.659Z,33.55
2023-05-10T05:09:20.608Z,33.60
2023-05-10T05:10:20.670Z,33.58
2023-05-10T05:11:20.598Z,33.58
2023-05-10T05:12:20.592Z,33.57
2023-05-10T05:13:20.654Z,33.57
2023-05-10T05:14:20.610Z,33.56
2023-05-10T05:15:20.605Z,33.57
2023-05-10T05:16:20.669Z,33.56
2023-05-10T05:17:20.616Z,33.53
2023-05-10T05:18:20.628Z,33.61
2023-05-10T05:19:20.624Z,33.60
2023-05-10T05:20:20.656Z,33.59
2023-05-10T05:21:20.599Z,33.56
2023-05-10T05:22:20.614Z,33.55
2023-05-10T05:23:20.583Z,33.57
2023-05-10T05:24:20.608Z,33.57
2023-05-10T05:25:20.624Z,33.62
2023-05-10T05:26:20.591Z,33.64
2023-05-10T05:27:20.576Z,33.58
2023-05-10T05:28:20.598Z,33.64
2023-05-10T05:29:20.610Z,33.61
2023-05-10T05:30:20.561Z,33.61
2023-05-10T05:31:20.613Z,33.58
2023-05-10T05:32:20.570Z,33.57
2023-05-10T05:33:20.554Z,33.76
2023-05-10T05:34:20.774Z,34.11
2023-05-10T05:35:20.582Z,34.18
2023-05-10T05:36:21.264Z,34.01
2023-05-10T05:37:20.585Z,33.79
2023-05-10T05:38:20.602Z,34.48
2023-05-10T05:39:20.729Z,35.26
2023-05-10T05:40:20.661Z,36.23
2023-05-10T05:41:20.685Z,36.62
2023-05-10T05:42:20.682Z,37.09
2023-05-10T05:43:20.727Z,37.20
2023-05-10T05:44:20.750Z,37.94
2023-05-10T05:45:20.786Z,37.97
2023-05-10T05:46:27.846Z,37.49
2023-05-10T05:47:20.759Z,38.25
2023-05-10T05:48:20.749Z,37.36
2023-05-10T05:49:20.892Z,37.27
2023-05-10T05:50:20.744Z,38.88
2023-05-10T05:51:20.774Z,37.47
2023-05-10T05:52:20.737Z,37.93
2023-05-10T05:53:20.746Z,39.12
2023-05-10T05:54:20.804Z,38.86
2023-05-10T05:55:20.774Z,37.18
2023-05-10T05:56:20.729Z,36.87
2023-05-10T05:57:20.729Z,37.79
2023-05-10T05:58:20.736Z,37.44
2023-05-10T05:59:20.785Z,36.97
2023-05-10T06:00:20.705Z,37.76
2023-05-10T06:01:20.654Z,37.14
2023-05-10T06:02:20.744Z,37.16
2023-05-10T06:03:20.989Z,37.30
2023-05-10T06:04:20.713Z,37.82
2023-05-10T06:05:20.660Z,35.76
2023-05-10T06:06:20.708Z,35.96
2023-05-10T06:07:20.655Z,37.32
2023-05-10T06:08:20.637Z,37.23
2023-05-10T06:09:20.798Z,36.64
2023-05-10T06:10:20.624Z,36.87
2023-05-10T06:11:20.618Z,36.68
2023-05-10T06:12:20.602Z,36.63
2023-05-10T06:13:20.651Z,36.38
2023-05-10T06:14:20.641Z,36.71
2023-05-10T06:15:20.599Z,36.71
2023-05-10T06:16:20.581Z,36.36
2023-05-10T06:17:20.619Z,36.36
2023-05-10T06:18:20.612Z,36.37
2023-05-10T06:19:20.567Z,36.57
2023-05-10T06:20:20.585Z,36.34
2023-05-10T06:21:20.537Z,36.96
2023-05-10T06:22:20.543Z,36.77
2023-05-10T06:23:20.508Z,36.66
2023-05-10T06:24:20.566Z,36.60
2023-05-10T06:25:20.564Z,36.95
2023-05-10T06:26:20.524Z,36.21
2023-05-10T06:27:20.517Z,36.22
2023-05-10T06:28:20.525Z,36.63
2023-05-10T06:29:20.534Z,35.56
2023-05-10T06:30:20.611Z,36.26
2023-05-10T06:31:20.726Z,36.72
2023-05-10T06:32:20.661Z,36.33
2023-05-10T06:33:20.679Z,36.79
2023-05-10T06:34:20.735Z,36.04
2023-05-10T06:35:20.740Z,36.35
2023-05-10T06:36:20.736Z,36.61
2023-05-10T06:37:20.797Z,35.93
2023-05-10T06:38:20.859Z,36.72
2023-05-10T06:39:20.869Z,35.34
2023-05-10T06:40:20.906Z,36.32
2023-05-10T06:41:22.529Z,36.61
2023-05-10T06:42:20.936Z,36.83
2023-05-10T06:43:20.893Z,36.30
2023-05-10T06:44:20.897Z,36.62
2023-05-10T06:45:21.113Z,36.71
2023-05-10T06:46:20.953Z,36.58
2023-05-10T06:47:20.884Z,36.24
2023-05-10T06:48:20.920Z,36.59
2023-05-10T06:49:20.873Z,36.39
2023-05-10T06:50:20.865Z,36.25
2023-05-10T06:51:20.846Z,36.25
2023-05-10T06:52:20.856Z,36.41
2023-05-10T06:53:20.860Z,36.04
2023-05-10T06:54:20.862Z,36.41
2023-05-10T06:55:20.827Z,36.41
2023-05-10T06:56:20.826Z,36.24
2023-05-10T06:57:31.128Z,36.27
2023-05-10T06:58:21.812Z,36.31
2023-05-10T06:59:21.406Z,36.28
2023-05-10T07:00:21.199Z,36.16
2023-05-10T07:01:20.857Z,36.22
2023-05-10T07:02:21.060Z,36.27
2023-05-10T07:03:20.795Z,36.45
2023-05-10T07:04:20.789Z,36.23
2023-05-10T07:05:21.142Z,36.55
2023-05-10T07:06:32.278Z,36.26
2023-05-10T07:07:21.771Z,36.56
2023-05-10T07:08:20.757Z,35.68
2023-05-10T07:09:20.703Z,36.29
2023-05-10T07:10:20.790Z,35.97
2023-05-10T07:11:20.727Z,36.39
2023-05-10T07:12:20.767Z,36.17
2023-05-10T07:13:20.794Z,36.04
2023-05-10T07:14:20.743Z,36.14
2023-05-10T07:15:20.704Z,35.84
2023-05-10T07:16:20.790Z,36.33
2023-05-10T07:17:20.685Z,35.85
2023-05-10T07:18:20.674Z,36.31
2023-05-10T07:19:20.758Z,36.28
2023-05-10T07:20:20.823Z,35.90
2023-05-10T07:21:20.682Z,36.27
2023-05-10T07:22:21.386Z,36.39
2023-05-10T07:23:20.690Z,35.98
2023-05-10T07:24:20.751Z,36.07
2023-05-10T07:25:20.786Z,36.11
2023-05-10T07:26:20.790Z,36.24
2023-05-10T07:27:20.831Z,36.15
2023-05-10T07:28:20.893Z,36.31
2023-05-10T07:29:20.909Z,36.15
2023-05-10T07:30:21.336Z,36.28
2023-05-10T07:31:21.010Z,35.70
2023-05-10T07:32:21.851Z,36.29
2023-05-10T07:33:21.050Z,36.61
2023-05-10T07:34:21.043Z,36.16
2023-05-10T07:35:21.324Z,36.14
2023-05-10T07:36:21.098Z,36.50
2023-05-10T07:37:21.147Z,36.21
2023-05-10T07:38:21.162Z,36.45
2023-05-10T07:39:26.685Z,36.32
2023-05-10T07:40:22.229Z,36.28
2023-05-10T07:41:21.203Z,36.32
2023-05-10T07:42:21.181Z,36.14
2023-05-10T07:43:21.185Z,36.46
2023-05-10T07:44:21.196Z,36.44
2023-05-10T07:45:21.169Z,36.03
2023-05-10T07:46:21.180Z,36.43
2023-05-10T07:47:21.188Z,36.44
2023-05-10T07:48:21.140Z,36.57
2023-05-10T07:49:21.171Z,36.48
2023-05-10T07:50:21.165Z,36.52
2023-05-10T07:51:21.147Z,36.07
2023-05-10T07:52:22.652Z,36.26
2023-05-10T07:53:21.083Z,36.26
2023-05-10T07:54:21.093Z,36.57
2023-05-10T07:55:21.116Z,35.67
2023-05-10T07:56:21.182Z,35.87
2023-05-10T07:57:21.180Z,36.70
2023-05-10T07:58:21.231Z,36.93
2023-05-10T07:59:21.248Z,36.05
2023-05-10T08:00:21.370Z,35.70
2023-05-10T08:01:21.288Z,36.10
2023-05-10T08:02:21.395Z,36.10
2023-05-10T08:03:21.452Z,36.12
2023-05-10T08:04:21.380Z,36.06
2023-05-10T08:05:21.443Z,35.95
2023-05-10T08:06:21.527Z,36.11
2023-05-10T08:07:21.493Z,35.85
2023-05-10T08:08:21.558Z,35.84
2023-05-10T08:09:21.559Z,35.83
2023-05-10T08:10:21.665Z,35.78
2023-05-10T08:11:21.614Z,35.82
2023-05-10T08:12:21.627Z,35.84
2023-05-10T08:13:21.701Z,35.81
2023-05-10T08:14:21.702Z,35.72
2023-05-10T08:15:21.746Z,35.67
2023-05-10T08:16:21.783Z,35.87
2023-05-10T08:17:22.833Z,36.03
2023-05-10T08:18:22.208Z,35.92
2023-05-10T08:19:21.781Z,35.86
2023-05-10T08:20:21.952Z,35.69
2023-05-10T08:21:21.760Z,35.79
2023-05-10T08:22:21.755Z,35.97
2023-05-10T08:23:21.752Z,35.90
2023-05-10T08:24:21.767Z,35.89
2023-05-10T08:25:21.746Z,35.51
2023-05-10T08:26:21.748Z,35.92
2023-05-10T08:27:21.789Z,37.26
2023-05-10T08:28:21.730Z,38.00
2023-05-10T08:29:21.721Z,38.34
2023-05-10T08:30:22.037Z,39.54
2023-05-10T08:31:21.747Z,39.84
2023-05-10T08:32:21.729Z,40.32
2023-05-10T08:33:21.732Z,40.78
2023-05-10T08:34:21.783Z,40.39
2023-05-10T08:35:21.817Z,41.55
2023-05-10T08:36:21.657Z,41.61
2023-05-10T08:37:21.674Z,41.87
2023-05-10T08:38:21.655Z,43.60
2023-05-10T08:39:29.792Z,43.17
2023-05-10T08:40:22.973Z,43.05
2023-05-10T08:41:21.693Z,43.84
2023-05-10T08:42:21.737Z,43.96
2023-05-10T08:43:21.645Z,44.54
2023-05-10T08:44:21.610Z,45.67
2023-05-10T08:45:21.865Z,44.71
2023-05-10T08:46:21.799Z,43.32
2023-05-10T08:47:21.763Z,43.02
2023-05-10T08:48:21.686Z,43.27
2023-05-10T08:49:21.596Z,42.62
2023-05-10T08:50:21.625Z,42.16
2023-05-10T08:51:21.609Z,42.03
2023-05-10T08:52:21.648Z,41.95
2023-05-10T08:53:21.721Z,42.78
2023-05-10T08:54:21.824Z,42.37
2023-05-10T08:55:21.850Z,41.84
2023-05-10T08:56:21.843Z,42.01
2023-05-10T08:57:21.853Z,42.18
2023-05-10T08:58:21.906Z,42.08
2023-05-10T08:59:21.948Z,41.96
2023-05-10T09:00:21.925Z,41.71
2023-05-10T09:01:22.039Z,41.74
2023-05-10T09:02:21.965Z,41.67
2023-05-10T09:03:21.993Z,41.68
2023-05-10T09:04:22.213Z,41.63
2023-05-10T09:05:22.076Z,41.05
2023-05-10T09:06:22.378Z,40.83
2023-05-10T09:07:22.151Z,40.96
2023-05-10T09:08:22.192Z,41.37
2023-05-10T09:09:22.180Z,41.26
2023-05-10T09:10:22.246Z,41.31
2023-05-10T09:11:22.245Z,41.23
2023-05-10T09:12:22.292Z,41.19
2023-05-10T09:13:22.336Z,41.14
2023-05-10T09:14:22.290Z,41.38
2023-05-10T09:15:22.289Z,41.36
2023-05-10T09:16:22.687Z,41.08
2023-05-10T09:17:22.497Z,41.21
2023-05-10T09:18:22.411Z,41.08
2023-05-10T09:19:22.355Z,40.83
2023-05-10T09:20:22.424Z,40.78
2023-05-10T09:21:22.386Z,41.12
2023-05-10T09:22:22.358Z,41.02
2023-05-10T09:23:22.787Z,40.96
2023-05-10T09:24:22.357Z,41.11
2023-05-10T09:25:22.412Z,41.08
2023-05-10T09:26:22.899Z,41.13
2023-05-10T09:27:22.380Z,41.06
2023-05-10T09:28:22.392Z,41.04
2023-05-10T09:29:22.384Z,41.01
2023-05-10T09:30:22.401Z,40.94
2023-05-10T09:31:23.680Z,41.01
2023-05-10T09:32:22.465Z,40.83
2023-05-10T09:33:22.413Z,40.91
2023-05-10T09:34:22.429Z,40.80
2023-05-10T09:35:22.426Z,40.93
2023-05-10T09:36:22.393Z,40.83
2023-05-10T09:37:22.445Z,40.78
2023-05-10T09:38:22.432Z,40.73
2023-05-10T09:39:22.384Z,40.75
2023-05-10T09:40:22.396Z,40.81
2023-05-10T09:41:22.917Z,40.81
2023-05-10T09:42:22.393Z,40.72
2023-05-10T09:43:22.411Z,40.70
2023-05-10T09:44:22.440Z,40.71
2023-05-10T09:45:22.443Z,40.70
2023-05-10T09:46:22.484Z,40.73
2023-05-10T09:47:22.454Z,40.65
2023-05-10T09:48:22.433Z,40.69
2023-05-10T09:49:22.461Z,40.74
2023-05-10T09:50:22.455Z,40.74
2023-05-10T09:51:22.898Z,40.70
2023-05-10T09:52:22.505Z,40.61
2023-05-10T09:53:22.491Z,39.93
2023-05-10T09:54:22.549Z,39.74
2023-05-10T09:55:22.639Z,39.85
2023-05-10T09:56:22.909Z,39.24
2023-05-10T09:57:22.543Z,38.65
2023-05-10T09:58:22.539Z,38.37
2023-05-10T09:59:22.530Z,38.15
2023-05-10T10:00:22.555Z,38.11
2023-05-10T10:01:22.606Z,38.12
2023-05-10T10:02:22.600Z,38.09
2023-05-10T10:03:22.592Z,37.89
2023-05-10T10:04:22.693Z,37.77
2023-05-10T10:05:22.649Z,37.52
2023-05-10T10:06:29.587Z,37.52
2023-05-10T10:07:23.680Z,36.75
2023-05-10T10:08:22.661Z,37.23
2023-05-10T10:09:22.707Z,36.45
2023-05-10T10:10:22.623Z,37.49
2023-05-10T10:11:22.888Z,37.49
2023-05-10T10:12:22.614Z,37.27
2023-05-10T10:13:22.612Z,37.84
2023-05-10T10:14:22.595Z,37.89
2023-05-10T10:15:22.983Z,38.92
2023-05-10T10:16:23.034Z,38.28
2023-05-10T10:17:22.586Z,37.54
2023-05-10T10:18:22.610Z,37.88
2023-05-10T10:19:22.590Z,37.92
2023-05-10T10:20:22.547Z,36.79
2023-05-10T10:21:22.568Z,37.04
2023-05-10T10:22:22.542Z,37.29
2023-05-10T10:23:22.547Z,37.50
2023-05-10T10:24:22.525Z,37.78
2023-05-10T10:25:22.537Z,37.80
2023-05-10T10:26:22.910Z,38.01
2023-05-10T10:27:22.506Z,37.84
2023-05-10T10:28:22.515Z,37.88
2023-05-10T10:29:22.528Z,37.81
2023-05-10T10:30:22.485Z,37.50
2023-05-10T10:31:22.564Z,37.15
2023-05-10T10:32:22.561Z,36.93
2023-05-10T10:33:28.432Z,35.57
2023-05-10T10:34:23.509Z,35.36
2023-05-10T10:35:22.502Z,35.14
2023-05-10T10:36:23.014Z,36.34
2023-05-10T10:37:22.541Z,36.41
2023-05-10T10:38:22.482Z,36.23
2023-05-10T10:39:22.496Z,37.05
2023-05-10T10:40:22.491Z,37.73
2023-05-10T10:41:22.910Z,37.74
2023-05-10T10:42:22.433Z,37.45
2023-05-10T10:43:22.451Z,37.69
2023-05-10T10:44:22.423Z,37.00
2023-05-10T10:45:22.424Z,37.07
2023-05-10T10:46:22.503Z,37.22
2023-05-10T10:47:22.566Z,37.42
2023-05-10T10:48:23.488Z,37.48
2023-05-10T10:49:22.437Z,37.70
2023-05-10T10:50:22.954Z,37.83
2023-05-10T10:51:22.396Z,36.79
2023-05-10T10:52:22.501Z,37.14
2023-05-10T10:53:22.401Z,36.98
2023-05-10T10:54:22.354Z,36.93
2023-05-10T10:55:22.361Z,37.67
2023-05-10T10:56:22.395Z,38.38
2023-05-10T10:57:22.450Z,38.47
2023-05-10T10:58:22.384Z,37.99
2023-05-10T10:59:22.339Z,37.85
2023-05-10T11:00:22.349Z,37.43
2023-05-10T11:01:22.471Z,37.56
2023-05-10T11:02:22.357Z,37.94
2023-05-10T11:03:22.350Z,41.86
2023-05-10T11:04:22.421Z,38.24
2023-05-10T11:05:22.413Z,38.15
2023-05-10T11:06:22.426Z,37.88
2023-05-10T11:07:22.998Z,37.73
2023-05-10T11:08:22.519Z,37.32
2023-05-10T11:09:22.528Z,37.49
2023-05-10T11:10:22.599Z,37.21
2023-05-10T11:11:22.585Z,37.48
2023-05-10T11:12:22.618Z,37.47
2023-05-10T11:13:22.663Z,36.98
2023-05-10T11:14:22.727Z,36.39
2023-05-10T11:15:22.749Z,36.70
2023-05-10T11:16:22.855Z,36.36
2023-05-10T11:17:22.786Z,36.18
2023-05-10T11:18:22.897Z,36.09
2023-05-10T11:19:22.882Z,35.70
2023-05-10T11:20:22.930Z,36.03
2023-05-10T11:21:22.945Z,36.13
2023-05-10T11:22:23.002Z,36.03
2023-05-10T11:23:23.087Z,35.95
2023-05-10T11:24:23.043Z,36.05
2023-05-10T11:25:23.941Z,35.92
2023-05-10T11:26:23.147Z,35.94
2023-05-10T11:27:23.452Z,36.67
2023-05-10T11:28:23.234Z,37.04
2023-05-10T11:29:23.174Z,37.17
2023-05-10T11:30:23.261Z,37.23
2023-05-10T11:31:23.318Z,37.32
2023-05-10T11:32:23.945Z,37.34
2023-05-10T11:33:23.310Z,37.46
2023-05-10T11:34:23.344Z,37.37
2023-05-10T11:35:23.400Z,37.38
2023-05-10T11:36:23.426Z,37.38
2023-05-10T11:37:23.946Z,37.50
2023-05-10T11:38:23.518Z,37.48
2023-05-10T11:39:23.570Z,37.39
2023-05-10T11:40:23.533Z,37.35
2023-05-10T11:41:23.591Z,37.38
2023-05-10T11:42:23.612Z,37.38
2023-05-10T11:43:23.606Z,37.37
2023-05-10T11:44:23.664Z,37.32
2023-05-10T11:45:23.662Z,37.29
2023-05-10T11:46:23.701Z,37.27
2023-05-10T11:47:23.725Z,37.28
2023-05-10T11:48:23.728Z,37.31
2023-05-10T11:49:23.753Z,37.26
2023-05-10T11:50:23.713Z,37.22
2023-05-10T11:51:23.772Z,37.23
2023-05-10T11:52:23.763Z,37.33
2023-05-10T11:53:25.777Z,37.32
2023-05-10T11:54:23.780Z,37.19
2023-05-10T11:55:23.779Z,37.18
2023-05-10T11:56:23.793Z,37.19
2023-05-10T11:57:23.858Z,37.16
2023-05-10T11:58:23.866Z,37.16
2023-05-10T11:59:23.844Z,37.20
2023-05-10T12:00:23.868Z,37.25
2023-05-10T12:01:23.828Z,37.14
2023-05-10T12:02:23.998Z,37.17
2023-05-10T12:03:24.011Z,37.09
2023-05-10T12:04:23.925Z,37.16
2023-05-10T12:05:23.914Z,37.15
2023-05-10T12:06:23.916Z,37.20
2023-05-10T12:07:23.958Z,37.19
2023-05-10T12:08:23.968Z,37.10
2023-05-10T12:10:23.947Z,37.09
2023-05-10T12:11:23.975Z,37.13
2023-05-10T12:12:23.975Z,37.14
2023-05-10T12:13:23.980Z,37.10
2023-05-10T12:14:23.929Z,37.08
2023-05-10T12:15:23.928Z,37.07
2023-05-10T12:16:23.930Z,37.02
2023-05-10T12:17:23.976Z,37.01
2023-05-10T12:18:23.930Z,36.98
2023-05-10T12:19:23.874Z,36.99
2023-05-10T12:20:23.900Z,36.95
2023-05-10T12:21:23.866Z,36.94
2023-05-10T12:22:23.861Z,36.98
2023-05-10T12:23:23.877Z,36.95
2023-05-10T12:24:23.831Z,36.93
2023-05-10T12:25:23.839Z,36.93
2023-05-10T12:26:23.852Z,36.95
2023-05-10T12:27:23.830Z,36.94
2023-05-10T12:28:23.864Z,36.92
2023-05-10T12:29:23.814Z,36.88
2023-05-10T12:30:23.788Z,36.84
2023-05-10T12:31:23.819Z,36.71
2023-05-10T12:32:23.817Z,36.87
2023-05-10T12:33:23.808Z,36.92
2023-05-10T12:34:23.784Z,36.70
2023-05-10T12:35:23.784Z,36.74
2023-05-10T12:36:23.754Z,36.67
2023-05-10T12:37:23.781Z,36.68
2023-05-10T12:38:23.756Z,36.73
2023-05-10T12:39:23.727Z,36.70
2023-05-10T12:40:23.742Z,36.62
2023-05-10T12:41:23.778Z,36.75
2023-05-10T12:42:23.709Z,36.79
2023-05-10T12:43:23.723Z,36.81
2023-05-10T12:44:23.735Z,36.83
2023-05-10T12:45:23.737Z,36.83
2023-05-10T12:46:23.820Z,36.82
2023-05-10T12:47:23.720Z,36.84
2023-05-10T12:48:23.728Z,36.82
2023-05-10T12:49:23.717Z,36.82
2023-05-10T12:50:23.697Z,36.77
2023-05-10T12:51:23.683Z,36.87
2023-05-10T12:52:23.661Z,37.14
2023-05-10T12:53:23.666Z,37.23
2023-05-10T12:54:23.649Z,37.25